createdAt,value
2018-03-07T00:00:49.460Z,23.53
2018-03-07T00:01:49.456Z,23.41
2018-03-07T00:02:49.449Z,23.41
2018-03-07T00:03:49.449Z,23.38
2018-03-07T00:04:49.441Z,23.39
2018-03-07T00:05:49.437Z,23.38
2018-03-07T00:06:49.432Z,23.37
2018-03-07T00:07:49.425Z,23.32
2018-03-07T00:08:49.420Z,23.35
2018-03-07T00:09:49.417Z,23.35
2018-03-07T00:10:49.409Z,23.34
2018-03-07T00:11:49.408Z,23.35
2018-03-07T00:12:49.402Z,23.42
2018-03-07T00:13:49.395Z,23.32
2018-03-07T00:14:49.433Z,23.26
2018-03-07T00:15:49.384Z,23.35
2018-03-07T00:16:49.380Z,23.29
2018-03-07T00:17:49.379Z,23.35
2018-03-07T00:18:49.372Z,23.26
2018-03-07T00:19:49.364Z,23.35
2018-03-07T00:20:49.360Z,23.35
2018-03-07T00:21:49.355Z,23.38
2018-03-07T00:22:49.352Z,23.31
2018-03-07T00:23:49.344Z,23.38
2018-03-07T00:24:49.345Z,23.45
2018-03-07T00:25:49.335Z,23.42
2018-03-07T00:26:49.333Z,23.45
2018-03-07T00:27:49.324Z,23.38
2018-03-07T00:28:49.320Z,23.41
2018-03-07T00:29:49.315Z,23.42
2018-03-07T00:30:49.312Z,23.44
2018-03-07T00:31:49.312Z,23.39
2018-03-07T00:32:49.304Z,23.39
2018-03-07T00:33:49.308Z,23.44
2018-03-07T00:34:49.295Z,23.39
2018-03-07T00:35:49.288Z,23.44
2018-03-07T00:36:49.288Z,23.50
2018-03-07T00:37:49.281Z,23.53
2018-03-07T00:38:49.271Z,23.47
2018-03-07T00:39:49.266Z,23.52
2018-03-07T00:40:49.262Z,23.41
2018-03-07T00:41:49.259Z,23.42
2018-03-07T00:42:49.270Z,23.42
2018-03-07T00:43:49.252Z,23.52
2018-03-07T00:44:49.243Z,23.42
2018-03-07T00:45:49.240Z,23.52
2018-03-07T00:46:49.235Z,23.47
2018-03-07T00:47:49.229Z,23.47
2018-03-07T00:48:49.223Z,23.53
2018-03-07T00:49:49.221Z,23.47
2018-03-07T00:50:49.213Z,23.49
2018-03-07T00:51:49.208Z,23.47
2018-03-07T00:52:49.204Z,23.50
2018-03-07T00:53:49.202Z,23.47
2018-03-07T00:54:49.196Z,23.49
2018-03-07T00:55:49.173Z,23.45
2018-03-07T00:56:49.168Z,23.45
2018-03-07T00:57:49.178Z,23.50
2018-03-07T00:58:49.176Z,23.52
2018-03-07T00:59:49.168Z,23.54
2018-03-07T01:00:49.150Z,23.49
2018-03-07T01:01:49.145Z,23.47
2018-03-07T01:02:49.135Z,23.41
2018-03-07T01:03:49.134Z,23.42
2018-03-07T01:04:49.126Z,23.50
2018-03-07T01:05:49.127Z,23.52
2018-03-07T01:06:49.117Z,23.47
2018-03-07T01:07:49.111Z,23.42
2018-03-07T01:08:49.139Z,23.47
2018-03-07T01:09:49.102Z,23.54
2018-03-07T01:10:49.099Z,23.45
2018-03-07T01:11:49.100Z,23.45
2018-03-07T01:12:49.087Z,23.47
2018-03-07T01:13:49.082Z,23.44
2018-03-07T01:14:49.076Z,23.47
2018-03-07T01:15:49.072Z,23.47
2018-03-07T01:16:49.068Z,23.47
2018-03-07T01:17:49.067Z,23.42
2018-03-07T01:18:49.057Z,23.37
2018-03-07T01:19:49.053Z,23.45
2018-03-07T01:20:49.051Z,23.52
2018-03-07T01:21:49.148Z,23.53
2018-03-07T01:22:49.038Z,23.52
2018-03-07T01:23:49.034Z,23.52
2018-03-07T01:24:49.029Z,23.49
2018-03-07T01:25:49.025Z,23.41
2018-03-07T01:26:49.022Z,23.52
2018-03-07T01:27:49.017Z,23.47
2018-03-07T01:28:49.026Z,23.47
2018-03-07T01:29:49.007Z,23.47
2018-03-07T01:30:48.998Z,23.50
2018-03-07T01:31:48.994Z,23.49
2018-03-07T01:32:49.007Z,23.45
2018-03-07T01:33:48.985Z,23.50
2018-03-07T01:34:49.005Z,23.53
2018-03-07T01:35:48.993Z,23.57
2018-03-07T01:36:48.994Z,23.47
2018-03-07T01:37:48.981Z,23.53
2018-03-07T01:38:48.977Z,23.45
2018-03-07T01:39:48.976Z,23.50
2018-03-07T01:40:48.966Z,23.49
2018-03-07T01:41:48.962Z,23.52
2018-03-07T01:42:48.959Z,23.47
2018-03-07T01:43:48.958Z,23.38
2018-03-07T01:44:48.950Z,23.42
2018-03-07T01:45:48.942Z,23.39
2018-03-07T01:46:48.939Z,23.41
2018-03-07T01:47:48.933Z,23.35
2018-03-07T01:48:48.934Z,23.38
2018-03-07T01:49:48.926Z,23.26
2018-03-07T01:50:48.919Z,23.39
2018-03-07T01:51:48.912Z,23.37
2018-03-07T01:52:48.910Z,23.39
2018-03-07T01:53:48.910Z,23.35
2018-03-07T01:54:48.902Z,23.32
2018-03-07T01:55:48.896Z,23.29
2018-03-07T01:56:48.888Z,23.29
2018-03-07T01:57:48.892Z,23.34
2018-03-07T01:58:48.880Z,23.29
2018-03-07T01:59:48.881Z,23.38
2018-03-07T02:00:48.873Z,23.29
2018-03-07T02:01:48.871Z,23.25
2018-03-07T02:02:48.860Z,23.23
2018-03-07T02:03:48.856Z,23.31
2018-03-07T02:04:48.853Z,23.19
2018-03-07T02:05:48.844Z,23.32
2018-03-07T02:06:48.838Z,23.25
2018-03-07T02:07:48.834Z,23.34
2018-03-07T02:08:48.832Z,23.23
2018-03-07T02:09:48.832Z,23.23
2018-03-07T02:10:48.803Z,23.23
2018-03-07T02:11:48.818Z,23.22
2018-03-07T02:12:48.794Z,23.21
2018-03-07T02:13:48.806Z,23.14
2018-03-07T02:14:48.801Z,23.15
2018-03-07T02:15:48.781Z,23.12
2018-03-07T02:16:48.773Z,23.15
2018-03-07T02:17:48.769Z,23.16
2018-03-07T02:18:48.767Z,23.14
2018-03-07T02:19:48.776Z,23.07
2018-03-07T02:20:48.755Z,22.96
2018-03-07T02:21:48.868Z,23.04
2018-03-07T02:22:48.746Z,23.03
2018-03-07T02:23:48.756Z,23.00
2018-03-07T02:24:48.751Z,23.01
2018-03-07T02:25:48.747Z,23.15
2018-03-07T02:26:48.723Z,23.07
2018-03-07T02:27:48.735Z,23.11
2018-03-07T02:28:48.713Z,23.12
2018-03-07T02:29:48.726Z,23.14
2018-03-07T02:30:48.721Z,23.18
2018-03-07T02:31:48.716Z,23.18
2018-03-07T02:32:48.694Z,23.09
2018-03-07T02:33:48.708Z,23.15
2018-03-07T02:34:48.686Z,23.22
2018-03-07T02:35:48.696Z,23.21
2018-03-07T02:36:48.677Z,23.15
2018-03-07T02:37:48.671Z,23.19
2018-03-07T02:38:48.682Z,23.19
2018-03-07T02:39:48.677Z,23.22
2018-03-07T02:40:48.653Z,23.16
2018-03-07T02:41:48.648Z,23.22
2018-03-07T02:42:48.647Z,23.19
2018-03-07T02:43:48.640Z,23.22
2018-03-07T02:44:48.633Z,23.22
2018-03-07T02:45:48.649Z,23.29
2018-03-07T02:46:48.623Z,23.22
2018-03-07T02:47:48.644Z,23.18
2018-03-07T02:48:48.615Z,23.14
2018-03-07T02:49:48.612Z,23.09
2018-03-07T02:50:48.621Z,23.06
2018-03-07T02:51:48.624Z,23.07
2018-03-07T02:52:48.611Z,23.11
2018-03-07T02:53:48.608Z,23.06
2018-03-07T02:54:48.598Z,23.04
2018-03-07T02:55:48.600Z,23.07
2018-03-07T02:56:48.588Z,23.11
2018-03-07T02:57:48.570Z,23.11
2018-03-07T02:58:48.564Z,23.09
2018-03-07T02:59:48.565Z,23.04
2018-03-07T03:00:48.566Z,22.89
2018-03-07T03:01:48.584Z,22.91
2018-03-07T03:02:48.541Z,22.86
2018-03-07T03:03:48.585Z,22.89
2018-03-07T03:04:48.551Z,22.82
2018-03-07T03:05:48.586Z,22.84
2018-03-07T03:06:48.521Z,22.82
2018-03-07T03:07:48.536Z,22.88
2018-03-07T03:08:48.513Z,22.93
2018-03-07T03:09:48.508Z,22.91
2018-03-07T03:10:48.500Z,22.96
2018-03-07T03:11:48.512Z,22.91
2018-03-07T03:12:48.505Z,22.97
2018-03-07T03:13:48.494Z,23.01
2018-03-07T03:14:48.494Z,22.84
2018-03-07T03:15:48.504Z,22.86
2018-03-07T03:16:48.488Z,22.89
2018-03-07T03:17:48.480Z,22.86
2018-03-07T03:18:48.474Z,22.86
2018-03-07T03:19:48.468Z,22.91
2018-03-07T03:20:48.468Z,22.94
2018-03-07T03:21:48.458Z,22.88
2018-03-07T03:22:48.453Z,22.82
2018-03-07T03:23:48.448Z,22.91
2018-03-07T03:24:48.442Z,22.88
2018-03-07T03:25:48.438Z,22.97
2018-03-07T03:26:48.436Z,22.96
2018-03-07T03:27:48.427Z,22.99
2018-03-07T03:28:48.423Z,23.00
2018-03-07T03:29:48.417Z,23.04
2018-03-07T03:30:48.414Z,23.00
2018-03-07T03:31:48.408Z,22.89
2018-03-07T03:32:48.402Z,22.93
2018-03-07T03:33:48.397Z,22.88
2018-03-07T03:34:48.391Z,22.89
2018-03-07T03:35:48.391Z,22.76
2018-03-07T03:36:48.381Z,22.84
2018-03-07T03:37:48.388Z,22.81
2018-03-07T03:38:48.369Z,22.72
2018-03-07T03:39:48.378Z,22.67
2018-03-07T03:40:48.360Z,22.67
2018-03-07T03:41:48.358Z,22.79
2018-03-07T03:42:48.349Z,22.76
2018-03-07T03:43:48.349Z,22.67
2018-03-07T03:44:48.340Z,22.70
2018-03-07T03:45:48.350Z,22.69
2018-03-07T03:46:48.314Z,22.74
2018-03-07T03:47:48.308Z,22.70
2018-03-07T03:48:48.321Z,22.61
2018-03-07T03:49:48.317Z,22.69
2018-03-07T03:50:48.310Z,22.63
2018-03-07T03:51:48.303Z,22.60
2018-03-07T03:52:48.300Z,22.76
2018-03-07T03:53:48.280Z,22.70
2018-03-07T03:54:48.271Z,22.60
2018-03-07T03:55:48.266Z,22.59
2018-03-07T03:56:48.265Z,22.57
2018-03-07T03:57:48.257Z,22.60
2018-03-07T03:58:48.251Z,22.64
2018-03-07T03:59:48.245Z,22.67
2018-03-07T04:00:48.240Z,22.61
2018-03-07T04:01:48.235Z,22.66
2018-03-07T04:02:48.251Z,22.66
2018-03-07T04:03:48.268Z,22.63
2018-03-07T04:04:48.241Z,22.74
2018-03-07T04:05:48.217Z,22.69
2018-03-07T04:06:48.254Z,22.66
2018-03-07T04:07:48.224Z,22.72
2018-03-07T04:08:48.215Z,22.63
2018-03-07T04:09:48.196Z,22.67
2018-03-07T04:10:48.204Z,22.64
2018-03-07T04:11:48.181Z,22.63
2018-03-07T04:12:48.180Z,22.69
2018-03-07T04:13:48.170Z,22.66
2018-03-07T04:14:48.183Z,22.70
2018-03-07T04:15:48.160Z,22.82
2018-03-07T04:16:48.172Z,22.74
2018-03-07T04:17:48.167Z,22.63
2018-03-07T04:18:48.143Z,22.64
2018-03-07T04:19:48.164Z,22.76
2018-03-07T04:20:48.182Z,22.70
2018-03-07T04:21:48.151Z,22.78
2018-03-07T04:22:48.144Z,22.79
2018-03-07T04:23:48.135Z,22.66
2018-03-07T04:24:48.129Z,22.70
2018-03-07T04:25:48.129Z,22.64
2018-03-07T04:26:48.118Z,22.67
2018-03-07T04:27:48.113Z,22.69
2018-03-07T04:28:48.112Z,22.64
2018-03-07T04:29:48.108Z,22.60
2018-03-07T04:30:48.080Z,22.63
2018-03-07T04:31:48.075Z,22.61
2018-03-07T04:32:48.087Z,22.69
2018-03-07T04:33:48.069Z,22.67
2018-03-07T04:34:48.063Z,22.72
2018-03-07T04:35:48.075Z,22.66
2018-03-07T04:36:48.053Z,22.72
2018-03-07T04:37:48.073Z,22.72
2018-03-07T04:38:48.041Z,22.72
2018-03-07T04:39:48.062Z,22.67
2018-03-07T04:40:48.050Z,22.74
2018-03-07T04:41:48.064Z,22.75
2018-03-07T04:42:48.038Z,22.85
2018-03-07T04:43:48.072Z,22.67
2018-03-07T04:44:48.028Z,22.74
2018-03-07T04:45:48.065Z,22.69
2018-03-07T04:46:48.018Z,22.61
2018-03-07T04:47:48.014Z,22.63
2018-03-07T04:48:47.986Z,22.59
2018-03-07T04:49:48.008Z,22.59
2018-03-07T04:50:47.978Z,22.60
2018-03-07T04:51:48.069Z,22.57
2018-03-07T04:52:47.967Z,22.64
2018-03-07T04:53:47.962Z,22.52
2018-03-07T04:54:47.958Z,22.51
2018-03-07T04:55:47.952Z,22.49
2018-03-07T04:56:47.942Z,22.52
2018-03-07T04:57:48.060Z,22.49
2018-03-07T04:58:47.935Z,22.49
2018-03-07T04:59:47.936Z,22.52
2018-03-07T05:00:47.921Z,22.49
2018-03-07T05:01:47.921Z,22.49
2018-03-07T05:02:47.951Z,22.49
2018-03-07T05:03:47.908Z,22.45
2018-03-07T05:04:47.904Z,22.51
2018-03-07T05:05:47.927Z,22.56
2018-03-07T05:06:47.890Z,22.61
2018-03-07T05:07:47.887Z,22.59
2018-03-07T05:08:47.877Z,22.64
2018-03-07T05:09:47.874Z,22.66
2018-03-07T05:10:47.871Z,22.63
2018-03-07T05:11:47.864Z,22.67
2018-03-07T05:12:47.858Z,22.74
2018-03-07T05:13:47.851Z,22.74
2018-03-07T05:14:47.847Z,22.81
2018-03-07T05:15:47.844Z,22.69
2018-03-07T05:16:47.838Z,22.67
2018-03-07T05:17:47.833Z,22.66
2018-03-07T05:18:47.830Z,22.78
2018-03-07T05:19:47.818Z,22.76
2018-03-07T05:20:47.816Z,22.72
2018-03-07T05:21:47.910Z,22.67
2018-03-07T05:22:47.806Z,22.70
2018-03-07T05:23:47.816Z,22.70
2018-03-07T05:24:47.794Z,22.70
2018-03-07T05:25:47.789Z,22.76
2018-03-07T05:26:47.800Z,22.72
2018-03-07T05:27:47.795Z,22.75
2018-03-07T05:28:47.790Z,22.75
2018-03-07T05:29:47.789Z,22.74
2018-03-07T05:30:47.781Z,22.75
2018-03-07T05:31:47.775Z,22.69
2018-03-07T05:32:47.769Z,22.69
2018-03-07T05:33:47.759Z,22.61
2018-03-07T05:34:47.753Z,22.61
2018-03-07T05:35:47.750Z,22.60
2018-03-07T05:36:47.749Z,22.66
2018-03-07T05:37:47.742Z,22.69
2018-03-07T05:38:47.734Z,22.69
2018-03-07T05:39:47.730Z,22.59
2018-03-07T05:40:47.727Z,22.59
2018-03-07T05:41:47.723Z,22.56
2018-03-07T05:42:47.717Z,22.60
2018-03-07T05:43:47.712Z,22.57
2018-03-07T05:44:47.701Z,22.61
2018-03-07T05:45:47.702Z,22.64
2018-03-07T05:46:47.695Z,22.54
2018-03-07T05:47:47.687Z,22.57
2018-03-07T05:48:47.684Z,22.60
2018-03-07T05:49:47.684Z,22.57
2018-03-07T05:50:47.668Z,22.61
2018-03-07T05:51:47.665Z,22.60
2018-03-07T05:52:47.665Z,22.45
2018-03-07T05:53:47.659Z,22.48
2018-03-07T05:54:47.647Z,22.49
2018-03-07T05:55:47.648Z,22.46
2018-03-07T05:56:47.643Z,22.45
2018-03-07T05:57:47.634Z,22.46
2018-03-07T05:58:47.631Z,22.39
2018-03-07T05:59:47.624Z,22.49
2018-03-07T06:00:47.712Z,22.46
2018-03-07T06:01:47.614Z,22.46
2018-03-07T06:02:47.603Z,22.48
2018-03-07T06:03:47.604Z,22.46
2018-03-07T06:04:47.600Z,22.60
2018-03-07T06:05:47.594Z,22.66
2018-03-07T06:06:47.581Z,22.64
2018-03-07T06:07:47.584Z,22.60
2018-03-07T06:08:47.576Z,22.57
2018-03-07T06:09:47.573Z,22.56
2018-03-07T06:10:47.560Z,22.57
2018-03-07T06:11:47.552Z,22.49
2018-03-07T06:12:47.552Z,22.49
2018-03-07T06:13:47.551Z,22.54
2018-03-07T06:14:47.543Z,22.57
2018-03-07T06:15:47.537Z,22.52
2018-03-07T06:16:47.530Z,22.57
2018-03-07T06:17:47.529Z,22.51
2018-03-07T06:18:47.519Z,22.57
2018-03-07T06:19:47.506Z,22.59
2018-03-07T06:20:47.507Z,22.66
2018-03-07T06:21:47.511Z,22.72
2018-03-07T06:22:47.502Z,22.72
2018-03-07T06:23:47.494Z,22.75
2018-03-07T06:24:47.491Z,22.78
2018-03-07T06:25:47.481Z,22.69
2018-03-07T06:26:47.479Z,22.60
2018-03-07T06:27:47.566Z,22.59
2018-03-07T06:28:47.466Z,22.60
2018-03-07T06:29:47.465Z,22.60
2018-03-07T06:30:47.459Z,22.60
2018-03-07T06:31:47.447Z,22.69
2018-03-07T06:32:47.447Z,22.64
2018-03-07T06:33:47.440Z,22.76
2018-03-07T06:34:47.435Z,22.66
2018-03-07T06:35:47.428Z,22.70
2018-03-07T06:36:47.424Z,22.66
2018-03-07T06:37:47.428Z,22.69
2018-03-07T06:38:47.411Z,22.69
2018-03-07T06:39:47.411Z,22.67
2018-03-07T06:40:47.404Z,22.70
2018-03-07T06:41:47.399Z,22.67
2018-03-07T06:42:47.391Z,22.64
2018-03-07T06:43:47.378Z,22.63
2018-03-07T06:44:47.378Z,22.63
2018-03-07T06:45:47.480Z,22.69
2018-03-07T06:46:47.362Z,22.63
2018-03-07T06:47:47.367Z,22.61
2018-03-07T06:48:47.362Z,22.57
2018-03-07T06:49:47.347Z,22.56
2018-03-07T06:50:47.351Z,22.57
2018-03-07T06:51:47.438Z,22.49
2018-03-07T06:52:47.365Z,22.48
2018-03-07T06:53:47.335Z,22.45
2018-03-07T06:54:47.322Z,22.44
2018-03-07T06:55:47.324Z,22.44
2018-03-07T06:56:47.321Z,22.36
2018-03-07T06:57:47.317Z,22.45
2018-03-07T06:58:47.312Z,22.45
2018-03-07T06:59:47.297Z,22.51
2018-03-07T07:00:47.299Z,22.48
2018-03-07T07:01:47.288Z,22.54
2018-03-07T07:02:47.291Z,22.49
2018-03-07T07:03:47.281Z,22.48
2018-03-07T07:04:47.271Z,22.45
2018-03-07T07:05:47.271Z,22.45
2018-03-07T07:06:47.264Z,22.45
2018-03-07T07:07:47.259Z,22.46
2018-03-07T07:08:47.250Z,22.45
2018-03-07T07:09:47.249Z,22.42
2018-03-07T07:10:47.242Z,22.39
2018-03-07T07:11:47.237Z,22.44
2018-03-07T07:12:47.223Z,22.49
2018-03-07T07:13:47.221Z,22.48
2018-03-07T07:14:47.220Z,22.45
2018-03-07T07:15:47.208Z,22.45
2018-03-07T07:16:47.212Z,22.44
2018-03-07T07:17:47.201Z,22.48
2018-03-07T07:18:47.194Z,22.49
2018-03-07T07:19:47.189Z,22.48
2018-03-07T07:20:47.178Z,22.35
2018-03-07T07:21:47.178Z,22.42
2018-03-07T07:22:47.172Z,22.49
2018-03-07T07:23:47.162Z,22.48
2018-03-07T07:24:47.165Z,22.48
2018-03-07T07:25:47.156Z,22.48
2018-03-07T07:26:47.150Z,22.45
2018-03-07T07:27:47.146Z,22.46
2018-03-07T07:28:47.143Z,22.41
2018-03-07T07:29:47.134Z,22.45
2018-03-07T07:30:47.132Z,22.44
2018-03-07T07:31:47.123Z,22.46
2018-03-07T07:32:47.112Z,22.48
2018-03-07T07:33:47.117Z,22.56
2018-03-07T07:34:47.109Z,22.56
2018-03-07T07:35:47.096Z,22.57
2018-03-07T07:36:47.096Z,22.59
2018-03-07T07:37:47.094Z,22.57
2018-03-07T07:38:47.085Z,22.48
2018-03-07T07:39:47.074Z,22.52
2018-03-07T07:40:47.088Z,22.54
2018-03-07T07:41:47.068Z,22.49
2018-03-07T07:42:47.067Z,22.49
2018-03-07T07:43:47.059Z,22.46
2018-03-07T07:44:47.052Z,22.52
2018-03-07T07:45:47.047Z,22.48
2018-03-07T07:46:47.041Z,22.54
2018-03-07T07:47:47.043Z,22.52
2018-03-07T07:48:47.031Z,22.54
2018-03-07T07:49:47.020Z,22.49
2018-03-07T07:50:47.039Z,22.59
2018-03-07T07:51:47.014Z,22.49
2018-03-07T07:52:47.009Z,22.52
2018-03-07T07:53:46.998Z,22.56
2018-03-07T07:54:46.991Z,22.60
2018-03-07T07:55:46.990Z,22.52
2018-03-07T07:56:46.987Z,22.59
2018-03-07T07:57:47.086Z,22.54
2018-03-07T07:58:46.976Z,22.61
2018-03-07T07:59:46.978Z,22.46
2018-03-07T08:00:46.969Z,22.59
2018-03-07T08:01:46.963Z,22.57
2018-03-07T08:02:46.948Z,22.49
2018-03-07T08:03:46.953Z,22.63
2018-03-07T08:04:46.943Z,22.60
2018-03-07T08:05:46.942Z,22.64
2018-03-07T08:06:46.932Z,22.67
2018-03-07T08:07:46.927Z,22.70
2018-03-07T08:08:46.921Z,22.63
2018-03-07T08:09:46.911Z,22.66
2018-03-07T08:10:46.911Z,22.66
2018-03-07T08:11:46.900Z,22.63
2018-03-07T08:12:46.904Z,22.72
2018-03-07T08:13:46.890Z,22.66
2018-03-07T08:14:46.894Z,22.70
2018-03-07T08:15:46.884Z,22.60
2018-03-07T08:16:46.883Z,22.54
2018-03-07T08:17:46.873Z,22.60
2018-03-07T08:18:46.863Z,22.66
2018-03-07T08:19:46.863Z,22.72
2018-03-07T08:20:46.852Z,22.70
2018-03-07T08:21:46.847Z,22.63
2018-03-07T08:22:46.851Z,22.61
2018-03-07T08:23:46.841Z,22.60
2018-03-07T08:24:46.841Z,22.61
2018-03-07T08:25:46.826Z,22.67
2018-03-07T08:26:46.829Z,22.69
2018-03-07T08:27:46.821Z,22.70
2018-03-07T08:28:46.819Z,22.60
2018-03-07T08:29:46.804Z,22.63
2018-03-07T08:30:46.804Z,22.66
2018-03-07T08:31:46.802Z,22.63
2018-03-07T08:32:46.795Z,22.67
2018-03-07T08:33:46.783Z,22.70
2018-03-07T08:34:46.783Z,22.75
2018-03-07T08:35:46.775Z,22.70
2018-03-07T08:36:46.767Z,22.79
2018-03-07T08:37:46.762Z,22.66
2018-03-07T08:38:46.761Z,22.66
2018-03-07T08:39:46.760Z,22.79
2018-03-07T08:40:46.751Z,22.76
2018-03-07T08:41:46.751Z,22.88
2018-03-07T08:42:46.744Z,22.79
2018-03-07T08:43:46.730Z,22.78
2018-03-07T08:44:46.725Z,22.75
2018-03-07T08:45:46.729Z,22.85
2018-03-07T08:46:46.723Z,22.84
2018-03-07T08:47:46.721Z,22.85
2018-03-07T08:48:46.714Z,22.76
2018-03-07T08:49:46.708Z,22.76
2018-03-07T08:50:46.699Z,22.82
2018-03-07T08:51:46.698Z,22.86
2018-03-07T08:52:46.699Z,22.81
2018-03-07T08:53:46.680Z,22.84
2018-03-07T08:54:46.679Z,22.85
2018-03-07T08:55:46.677Z,22.89
2018-03-07T08:56:46.672Z,22.82
2018-03-07T08:57:46.667Z,22.76
2018-03-07T08:58:46.654Z,22.79
2018-03-07T08:59:46.656Z,22.84
2018-03-07T09:00:46.651Z,22.86
2018-03-07T09:01:46.647Z,22.88
2018-03-07T09:02:46.640Z,22.86
2018-03-07T09:03:46.637Z,22.93
2018-03-07T09:04:46.622Z,22.86
2018-03-07T09:05:46.625Z,22.84
2018-03-07T09:06:46.610Z,22.88
2018-03-07T09:07:46.636Z,22.88
2018-03-07T09:08:46.600Z,22.84
2018-03-07T09:09:46.596Z,22.85
2018-03-07T09:10:46.599Z,22.89
2018-03-07T09:11:46.594Z,22.93
2018-03-07T09:12:46.589Z,22.91
2018-03-07T09:13:46.584Z,22.89
2018-03-07T09:14:46.569Z,22.91
2018-03-07T09:15:46.573Z,22.89
2018-03-07T09:16:46.570Z,22.75
2018-03-07T09:17:46.537Z,22.85
2018-03-07T09:18:46.541Z,22.75
2018-03-07T09:19:46.557Z,22.89
2018-03-07T09:20:46.522Z,22.96
2018-03-07T09:21:46.527Z,22.88
2018-03-07T09:22:46.521Z,22.84
2018-03-07T09:23:46.524Z,22.82
2018-03-07T09:24:46.529Z,22.91
2018-03-07T09:25:46.525Z,22.84
2018-03-07T09:26:46.490Z,23.06
2018-03-07T09:27:46.513Z,22.88
2018-03-07T09:28:46.508Z,22.96
2018-03-07T09:29:46.503Z,22.85
2018-03-07T09:30:46.498Z,22.96
2018-03-07T09:31:46.475Z,22.85
2018-03-07T09:32:46.461Z,22.88
2018-03-07T09:33:46.466Z,22.84
2018-03-07T09:34:46.467Z,22.96
2018-03-07T09:35:46.445Z,22.97
2018-03-07T09:36:46.451Z,22.94
2018-03-07T09:37:46.436Z,22.97
2018-03-07T09:38:46.439Z,22.86
2018-03-07T09:39:46.425Z,22.89
2018-03-07T09:40:46.430Z,22.93
2018-03-07T09:41:46.423Z,22.85
2018-03-07T09:42:46.417Z,22.86
2018-03-07T09:43:46.412Z,22.84
2018-03-07T09:44:46.409Z,22.96
2018-03-07T09:45:46.402Z,22.86
2018-03-07T09:46:46.396Z,22.88
2018-03-07T09:47:46.411Z,22.96
2018-03-07T09:48:46.377Z,23.00
2018-03-07T09:49:46.383Z,22.97
2018-03-07T09:50:46.377Z,22.93
2018-03-07T09:51:46.391Z,22.99
2018-03-07T09:52:46.374Z,22.91
2018-03-07T09:53:46.364Z,23.09
2018-03-07T09:54:46.357Z,23.09
2018-03-07T09:55:46.368Z,23.15
2018-03-07T09:56:46.339Z,23.09
2018-03-07T09:57:46.358Z,23.16
2018-03-07T09:58:46.348Z,23.21
2018-03-07T09:59:46.339Z,23.31
2018-03-07T10:00:46.334Z,23.16
2018-03-07T10:01:46.340Z,23.14
2018-03-07T10:02:46.333Z,23.16
2018-03-07T10:03:46.328Z,23.18
2018-03-07T10:04:46.323Z,23.21
2018-03-07T10:05:46.300Z,23.21
2018-03-07T10:06:46.312Z,23.15
2018-03-07T10:07:46.308Z,23.19
2018-03-07T10:08:46.287Z,23.21
2018-03-07T10:09:46.299Z,23.22
2018-03-07T10:10:46.280Z,23.19
2018-03-07T10:11:46.283Z,23.22
2018-03-07T10:12:46.267Z,23.23
2018-03-07T10:13:46.264Z,23.21
2018-03-07T10:14:46.256Z,23.18
2018-03-07T10:15:46.272Z,23.31
2018-03-07T10:16:46.259Z,23.22
2018-03-07T10:17:46.239Z,23.19
2018-03-07T10:18:46.252Z,23.25
2018-03-07T10:19:46.248Z,23.34
2018-03-07T10:20:46.291Z,23.19
2018-03-07T10:21:46.239Z,23.19
2018-03-07T10:22:46.244Z,23.18
2018-03-07T10:23:46.226Z,23.21
2018-03-07T10:24:46.221Z,23.23
2018-03-07T10:25:46.219Z,23.19
2018-03-07T10:26:46.210Z,23.22
2018-03-07T10:27:46.304Z,23.15
2018-03-07T10:28:46.203Z,23.26
2018-03-07T10:29:46.200Z,23.29
2018-03-07T10:30:46.195Z,23.35
2018-03-07T10:31:46.188Z,23.41
2018-03-07T10:32:46.185Z,23.41
2018-03-07T10:33:46.178Z,23.44
2018-03-07T10:34:46.175Z,23.49
2018-03-07T10:35:46.166Z,23.42
2018-03-07T10:36:46.159Z,23.47
2018-03-07T10:37:46.159Z,23.49
2018-03-07T10:38:46.155Z,23.47
2018-03-07T10:39:46.145Z,23.49
2018-03-07T10:40:46.142Z,23.62
2018-03-07T10:41:46.135Z,23.69
2018-03-07T10:42:46.140Z,23.57
2018-03-07T10:43:46.125Z,23.52
2018-03-07T10:44:46.121Z,23.64
2018-03-07T10:45:46.123Z,23.57
2018-03-07T10:46:46.110Z,23.63
2018-03-07T10:47:46.110Z,23.60
2018-03-07T10:48:46.109Z,23.72
2018-03-07T10:49:46.105Z,23.74
2018-03-07T10:50:46.096Z,23.74
2018-03-07T10:51:46.094Z,23.72
2018-03-07T10:52:46.089Z,23.71
2018-03-07T10:53:46.088Z,23.59
2018-03-07T10:54:46.075Z,23.68
2018-03-07T10:55:46.074Z,23.78
2018-03-07T10:56:46.066Z,23.71
2018-03-07T10:57:46.059Z,23.72
2018-03-07T10:58:46.058Z,23.77
2018-03-07T10:59:46.053Z,23.74
2018-03-07T11:00:46.047Z,23.72
2018-03-07T11:01:46.047Z,23.69
2018-03-07T11:02:46.037Z,23.71
2018-03-07T11:03:46.033Z,23.71
2018-03-07T11:04:46.033Z,23.81
2018-03-07T11:05:46.024Z,23.74
2018-03-07T11:06:46.022Z,23.84
2018-03-07T11:07:46.014Z,23.87
2018-03-07T11:08:46.014Z,23.92
2018-03-07T11:09:46.006Z,23.89
2018-03-07T11:10:46.001Z,23.89
2018-03-07T11:11:45.999Z,23.93
2018-03-07T11:12:45.991Z,23.94
2018-03-07T11:13:45.990Z,23.89
2018-03-07T11:14:45.984Z,24.00
2018-03-07T11:15:45.977Z,24.06
2018-03-07T11:16:45.972Z,24.02
2018-03-07T11:17:45.967Z,23.94
2018-03-07T11:18:45.966Z,23.97
2018-03-07T11:19:45.961Z,23.96
2018-03-07T11:20:45.953Z,23.97
2018-03-07T11:21:45.949Z,24.06
2018-03-07T11:22:45.948Z,23.89
2018-03-07T11:23:45.943Z,23.97
2018-03-07T11:24:45.935Z,24.00
2018-03-07T11:25:45.935Z,24.05
2018-03-07T11:26:45.929Z,24.08
2018-03-07T11:27:45.921Z,24.12
2018-03-07T11:28:45.921Z,24.11
2018-03-07T11:29:45.913Z,24.11
2018-03-07T11:30:45.911Z,24.15
2018-03-07T11:31:45.903Z,24.14
2018-03-07T11:32:45.905Z,24.00
2018-03-07T11:33:45.894Z,24.04
2018-03-07T11:34:45.892Z,24.00
2018-03-07T11:35:45.889Z,24.00
2018-03-07T11:36:45.882Z,24.00
2018-03-07T11:37:45.874Z,23.86
2018-03-07T11:38:45.868Z,24.02
2018-03-07T11:39:45.918Z,24.04
2018-03-07T11:40:45.866Z,23.94
2018-03-07T11:41:45.857Z,24.06
2018-03-07T11:42:45.852Z,23.93
2018-03-07T11:43:45.847Z,23.87
2018-03-07T11:44:45.840Z,23.87
2018-03-07T11:45:45.836Z,23.84
2018-03-07T11:46:45.853Z,23.86
2018-03-07T11:47:45.828Z,23.86
2018-03-07T11:48:45.821Z,23.93
2018-03-07T11:49:45.820Z,23.92
2018-03-07T11:50:45.814Z,23.92
2018-03-07T11:51:45.813Z,23.92
2018-03-07T11:52:45.803Z,23.90
2018-03-07T11:53:45.827Z,23.90
2018-03-07T11:54:45.797Z,24.00
2018-03-07T11:55:45.793Z,24.04
2018-03-07T11:56:45.790Z,24.04
2018-03-07T11:57:45.779Z,24.04
2018-03-07T11:58:45.773Z,24.08
2018-03-07T11:59:45.769Z,24.04
2018-03-07T12:00:45.759Z,23.97
2018-03-07T12:01:45.764Z,23.99
2018-03-07T12:02:45.755Z,23.93
2018-03-07T12:03:45.751Z,23.97
2018-03-07T12:04:45.746Z,24.12
2018-03-07T12:05:45.743Z,24.08
2018-03-07T12:06:45.754Z,24.04
2018-03-07T12:07:45.738Z,24.12
2018-03-07T12:08:45.743Z,24.15
2018-03-07T12:09:45.726Z,24.14
2018-03-07T12:10:45.722Z,24.04
2018-03-07T12:11:45.718Z,24.12
2018-03-07T12:12:45.709Z,24.06
2018-03-07T12:13:45.705Z,24.06
2018-03-07T12:14:45.704Z,24.05
2018-03-07T12:15:45.699Z,24.09
2018-03-07T12:16:45.695Z,24.24
2018-03-07T12:17:45.690Z,24.21
2018-03-07T12:18:45.685Z,24.26
2018-03-07T12:19:45.682Z,24.56
2018-03-07T12:20:45.675Z,24.61
2018-03-07T12:21:45.667Z,24.64
2018-03-07T12:22:45.666Z,24.79
2018-03-07T12:23:45.659Z,24.79
2018-03-07T12:24:45.654Z,24.92
2018-03-07T12:25:45.655Z,24.90
2018-03-07T12:26:45.649Z,25.27
2018-03-07T12:27:45.645Z,25.22
2018-03-07T12:28:45.637Z,25.26
2018-03-07T12:29:45.634Z,25.31
2018-03-07T12:30:45.629Z,25.36
2018-03-07T12:31:45.630Z,25.44
2018-03-07T12:32:45.626Z,25.38
2018-03-07T12:33:45.617Z,25.44
2018-03-07T12:34:45.620Z,25.45
2018-03-07T12:35:45.614Z,25.60
2018-03-07T12:36:45.612Z,25.49
2018-03-07T12:37:45.609Z,25.39
2018-03-07T12:38:45.603Z,25.41
2018-03-07T12:39:45.599Z,25.44
2018-03-07T12:40:45.594Z,25.69
2018-03-07T12:41:45.600Z,25.76
2018-03-07T12:42:45.582Z,25.75
2018-03-07T12:43:45.580Z,25.78
2018-03-07T12:44:45.577Z,25.75
2018-03-07T12:45:45.560Z,25.74
2018-03-07T12:46:45.574Z,25.81
2018-03-07T12:47:45.571Z,25.83
2018-03-07T12:48:45.568Z,25.83
2018-03-07T12:49:45.560Z,25.93
2018-03-07T12:50:45.560Z,25.91
2018-03-07T12:51:45.538Z,25.97
2018-03-07T12:52:45.534Z,26.12